Time;durP1;ratioP1;P1;durP2;ratioP2;P2;SDS_P1;SDS_P2;PMS_P1;PMS_P2;Temp;Humidity;BMP_temperature;BMP_pressure;BME280_temperature;BME280_humidity;BME280_pressure;Samples;Min_cycle;Max_cycle;Signal;HPM_P1;HPM_P2
2020/12/08 00:00:20;;;;;;;26.90;16.92;;;4.50;93.80;;;;;;5032045;28;20075;-72
2020/12/08 00:02:46;;;;;;;23.95;17.05;;;4.50;93.70;;;;;;5032586;28;20033;-75
2020/12/08 00:05:12;;;;;;;24.50;16.52;;;4.50;93.60;;;;;;5033893;28;20037;-73
2020/12/08 00:07:37;;;;;;;23.60;16.65;;;4.40;93.40;;;;;;5018394;28;20053;-72
2020/12/08 00:10:04;;;;;;;24.83;16.08;;;4.30;93.40;;;;;;5035583;28;20521;-71
2020/12/08 00:12:29;;;;;;;23.40;17.75;;;4.30;93.40;;;;;;5035168;28;20021;-72
2020/12/08 00:14:55;;;;;;;24.73;17.27;;;4.20;93.50;;;;;;5035569;28;20029;-72
2020/12/08 00:17:21;;;;;;;24.30;17.25;;;4.20;93.50;;;;;;5035272;28;20076;-82
2020/12/08 00:19:47;;;;;;;24.42;16.83;;;4.30;93.60;;;;;;5020664;28;20501;-73
2020/12/08 00:22:13;;;;;;;22.92;17.02;;;4.30;93.60;;;;;;5026628;28;20041;-72
2020/12/08 00:24:39;;;;;;;25.77;17.52;;;4.30;93.70;;;;;;5017359;28;20117;-71
2020/12/08 00:27:07;;;;;;;25.90;16.10;;;4.40;93.60;;;;;;5031832;28;20062;-74
2020/12/08 00:29:33;;;;;;;22.45;16.33;;;4.50;93.70;;;;;;5057784;28;20029;-85
2020/12/08 00:31:59;;;;;;;24.23;17.45;;;4.60;93.70;;;;;;5036983;28;20032;-76
2020/12/08 00:34:24;;;;;;;23.48;16.08;;;4.60;93.70;;;;;;5055868;28;20039;-81
2020/12/08 00:36:50;;;;;;;27.95;16.48;;;4.70;93.70;;;;;;5021752;28;20056;-71
2020/12/08 00:39:15;;;;;;;24.80;17.15;;;4.80;93.70;;;;;;5034625;28;20079;-75
2020/12/08 00:41:41;;;;;;;28.00;18.73;;;4.80;93.60;;;;;;5034883;28;20029;-73
2020/12/08 00:44:06;;;;;;;27.65;19.33;;;4.90;93.60;;;;;;5032818;28;20036;-75
2020/12/08 00:46:32;;;;;;;26.48;18.63;;;5.00;93.60;;;;;;5035776;28;20596;-75
2020/12/08 00:48:57;;;;;;;23.83;18.02;;;5.00;93.60;;;;;;5035569;28;20509;-72
2020/12/08 00:51:23;;;;;;;24.88;18.75;;;5.00;93.40;;;;;;5016949;28;20124;-73
2020/12/08 00:53:48;;;;;;;24.70;18.00;;;5.00;93.30;;;;;;5033974;28;20032;-72
2020/12/08 00:56:14;;;;;;;26.52;17.75;;;4.90;93.30;;;;;;5034947;28;20034;-73
2020/12/08 00:58:40;;;;;;;21.08;15.20;;;4.80;93.30;;;;;;5017124;28;20056;-72
2020/12/08 01:01:07;;;;;;;23.33;16.35;;;4.70;93.30;;;;;;5032637;28;20026;-74
2020/12/08 01:03:36;;;;;;;26.38;16.65;;;4.60;93.30;;;;;;5016022;28;20025;-73
2020/12/08 01:06:02;;;;;;;19.42;14.23;;;4.50;93.30;;;;;;5034624;28;20034;-75
2020/12/08 01:08:31;;;;;;;23.27;15.43;;;4.30;93.30;;;;;;5034356;28;20033;-82
2020/12/08 01:10:57;;;;;;;22.88;13.57;;;4.20;93.40;;;;;;5016792;28;20025;-73
2020/12/08 01:13:23;;;;;;;20.13;14.20;;;4.10;93.40;;;;;;5034818;28;20036;-79
2020/12/08 01:15:49;;;;;;;18.98;14.40;;;4.10;93.50;;;;;;5015661;28;20041;-76
2020/12/08 01:18:15;;;;;;;23.63;14.32;;;4.10;93.60;;;;;;5034594;28;20052;-73
2020/12/08 01:20:40;;;;;;;19.63;14.85;;;4.00;93.60;;;;;;5034735;28;20036;-72
2020/12/08 01:23:06;;;;;;;21.77;15.13;;;4.00;93.70;;;;;;5015943;28;20033;-72
2020/12/08 01:25:32;;;;;;;19.80;14.57;;;4.00;93.90;;;;;;5034549;28;20119;-74
2020/12/08 01:27:59;;;;;;;19.42;14.02;;;4.10;93.90;;;;;;5015978;28;20025;-76
2020/12/08 01:30:24;;;;;;;16.80;13.10;;;4.10;94.00;;;;;;5034609;28;20474;-72
2020/12/08 01:32:50;;;;;;;17.20;13.32;;;4.10;93.90;;;;;;5034294;28;20032;-72
2020/12/08 01:35:17;;;;;;;18.65;13.50;;;4.10;93.90;;;;;;5033379;28;20029;-72
2020/12/08 01:37:46;;;;;;;18.58;12.93;;;4.10;93.80;;;;;;5034245;28;20466;-72
2020/12/08 01:40:12;;;;;;;15.95;12.48;;;4.00;93.80;;;;;;5033867;28;20108;-72
2020/12/08 01:42:38;;;;;;;16.17;11.98;;;4.00;93.70;;;;;;5033375;28;20045;-72
2020/12/08 01:45:05;;;;;;;18.35;12.70;;;3.90;93.70;;;;;;5033837;28;20493;-73
2020/12/08 01:47:31;;;;;;;18.67;13.43;;;3.80;93.80;;;;;;5034061;28;20071;-73
2020/12/08 01:49:56;;;;;;;19.40;12.75;;;3.70;93.80;;;;;;5032989;28;20096;-75
2020/12/08 01:52:22;;;;;;;18.80;12.95;;;3.60;93.90;;;;;;5034175;28;20108;-82
2020/12/08 01:54:51;;;;;;;16.90;12.88;;;3.60;93.90;;;;;;5034311;28;20025;-73
2020/12/08 01:57:17;;;;;;;18.77;12.68;;;3.50;93.90;;;;;;5015652;28;20029;-73
2020/12/08 01:59:43;;;;;;;17.85;12.85;;;3.40;93.90;;;;;;5033972;28;20504;-72
2020/12/08 02:02:09;;;;;;;17.55;12.82;;;3.30;94.00;;;;;;5015807;28;20033;-72
2020/12/08 02:04:36;;;;;;;18.05;12.75;;;3.30;94.00;;;;;;5033107;28;20033;-73
2020/12/08 02:07:03;;;;;;;16.77;13.10;;;3.30;94.00;;;;;;5033294;28;20493;-75
2020/12/08 02:09:29;;;;;;;17.80;12.23;;;3.20;94.00;;;;;;5033578;28;20025;-73
2020/12/08 02:11:55;;;;;;;17.88;12.75;;;3.10;94.00;;;;;;5032717;28;20025;-72
2020/12/08 02:14:24;;;;;;;20.23;13.00;;;3.00;94.00;;;;;;5015686;28;20108;-73
2020/12/08 02:16:49;;;;;;;16.02;12.82;;;3.00;94.10;;;;;;5015657;28;20025;-72
2020/12/08 02:19:15;;;;;;;18.08;13.20;;;2.90;94.20;;;;;;5032571;28;20024;-73
2020/12/08 02:21:40;;;;;;;17.60;11.98;;;3.00;94.20;;;;;;5015816;28;20512;-72
2020/12/08 02:24:06;;;;;;;16.98;12.27;;;2.90;94.30;;;;;;5032895;28;20035;-74
2020/12/08 02:26:32;;;;;;;16.50;12.52;;;2.90;94.30;;;;;;5032931;28;20041;-75
2020/12/08 02:28:58;;;;;;;18.88;12.70;;;2.90;94.30;;;;;;5014568;28;20029;-71
2020/12/08 02:31:23;;;;;;;18.92;13.00;;;2.90;94.40;;;;;;5034242;28;20155;-72
2020/12/08 02:33:49;;;;;;;19.13;12.48;;;2.90;94.40;;;;;;5033205;28;20413;-75
2020/12/08 02:36:14;;;;;;;16.52;11.60;;;2.90;94.40;;;;;;5015397;28;20021;-71
2020/12/08 02:38:40;;;;;;;20.42;13.13;;;2.80;94.40;;;;;;5014828;28;20020;-73
2020/12/08 02:41:06;;;;;;;16.25;12.07;;;2.80;94.40;;;;;;5032751;28;20385;-72
2020/12/08 02:43:32;;;;;;;19.55;13.50;;;2.80;94.50;;;;;;5032868;28;20021;-72
2020/12/08 02:45:59;;;;;;;16.10;12.07;;;2.80;94.60;;;;;;5032116;28;20030;-72
2020/12/08 02:48:24;;;;;;;19.88;13.25;;;2.80;94.70;;;;;;5027724;28;20018;-75
2020/12/08 02:50:50;;;;;;;20.52;12.80;;;2.90;94.80;;;;;;5036428;28;20025;-73
2020/12/08 02:53:15;;;;;;;16.48;11.75;;;2.90;94.80;;;;;;5038905;28;20033;-73
2020/12/08 02:55:48;;;;;;;15.05;11.25;;;2.90;94.80;;;;;;5038536;28;20480;-82
2020/12/08 02:58:15;;;;;;;16.25;11.65;;;2.80;94.70;;;;;;5029223;28;20026;-72
2020/12/08 03:00:40;;;;;;;19.58;11.45;;;2.80;94.70;;;;;;5045162;28;20033;-80
2020/12/08 03:03:06;;;;;;;19.48;11.48;;;2.80;94.70;;;;;;5052525;28;20075;-72
2020/12/08 03:05:32;;;;;;;15.70;11.90;;;2.70;94.70;;;;;;5018016;28;20120;-76
2020/12/08 03:07:57;;;;;;;18.25;11.55;;;2.70;94.60;;;;;;5031818;28;20022;-72
2020/12/08 03:10:23;;;;;;;15.48;11.43;;;2.70;94.60;;;;;;5032924;28;20382;-71
2020/12/08 03:12:48;;;;;;;17.33;11.23;;;2.60;94.70;;;;;;5032756;28;20028;-72
2020/12/08 03:15:14;;;;;;;19.45;11.73;;;2.60;94.70;;;;;;5031757;28;20371;-71
2020/12/08 03:17:39;;;;;;;18.48;12.43;;;2.60;94.70;;;;;;5032455;28;20022;-73
2020/12/08 03:20:06;;;;;;;16.98;10.88;;;2.60;95.00;;;;;;5032376;28;20053;-71
2020/12/08 03:22:32;;;;;;;18.90;12.43;;;2.60;94.70;;;;;;5032063;28;20100;-72
2020/12/08 03:24:57;;;;;;;17.65;12.13;;;2.50;94.70;;;;;;5032082;28;20427;-71
2020/12/08 03:27:23;;;;;;;16.10;11.57;;;2.50;94.70;;;;;;5032655;28;20036;-73
2020/12/08 03:29:49;;;;;;;17.00;10.90;;;2.50;94.70;;;;;;5031899;28;20033;-71
2020/12/08 03:32:14;;;;;;;19.02;12.18;;;2.50;94.70;;;;;;5032219;28;20053;-71
2020/12/08 03:34:40;;;;;;;17.48;11.40;;;2.40;94.70;;;;;;5031785;28;20079;-72
2020/12/08 03:37:06;;;;;;;16.95;10.50;;;2.40;94.70;;;;;;5032204;28;20030;-71
2020/12/08 03:39:31;;;;;;;17.17;11.60;;;2.40;94.70;;;;;;5033882;28;20033;-72
2020/12/08 03:42:03;;;;;;;17.05;11.88;;;2.30;94.70;;;;;;5017375;28;20025;-72
2020/12/08 03:44:28;;;;;;;16.35;11.45;;;2.30;94.80;;;;;;5036346;28;20069;-71
2020/12/08 03:46:59;;;;;;;16.75;11.70;;;2.30;94.80;;;;;;5035882;28;20057;-72
2020/12/08 03:49:26;;;;;;;17.20;12.43;;;2.30;94.80;;;;;;5035690;28;20026;-72
2020/12/08 03:51:57;;;;;;;16.50;10.90;;;2.30;94.80;;;;;;5036227;28;20021;-72
2020/12/08 03:54:23;;;;;;;17.67;11.98;;;2.30;95.00;;;;;;5036140;28;20105;-72
2020/12/08 03:56:49;;;;;;;19.45;13.20;;;2.30;95.10;;;;;;5035570;28;20033;-71
2020/12/08 03:59:18;;;;;;;18.77;11.90;;;2.30;95.10;;;;;;5035820;28;20029;-71
2020/12/08 04:01:50;;;;;;;19.27;13.43;;;2.30;95.20;;;;;;5035983;28;20543;-75
2020/12/08 04:04:16;;;;;;;;;;;2.40;95.20;;;;;;5017614;28;20037;-72
2020/12/08 04:06:41;;;;;;;18.70;12.00;;;2.40;95.20;;;;;;5035914;28;19911;-72
2020/12/08 04:09:07;;;;;;;17.90;12.43;;;2.40;95.00;;;;;;5017850;28;20030;-81
2020/12/08 04:11:33;;;;;;;17.98;12.38;;;2.30;95.00;;;;;;5035143;28;20026;-77
2020/12/08 04:14:00;;;;;;;17.52;12.55;;;2.30;95.00;;;;;;5035442;28;20025;-73
2020/12/08 04:16:27;;;;;;;18.13;13.20;;;2.30;95.00;;;;;;5035867;28;20117;-73
2020/12/08 04:18:52;;;;;;;16.98;12.50;;;2.30;95.00;;;;;;5034815;28;20478;-74
2020/12/08 04:21:25;;;;;;;20.20;14.45;;;2.30;95.00;;;;;;5035792;28;20159;-72
2020/12/08 04:23:59;;;;;;;15.52;11.32;;;2.20;95.00;;;;;;5034911;28;20022;-72
2020/12/08 04:26:25;;;;;;;17.48;12.32;;;2.20;95.00;;;;;;5036110;28;20055;-73
2020/12/08 04:28:50;;;;;;;19.95;12.57;;;2.10;95.00;;;;;;5036619;28;20029;-73
2020/12/08 04:31:16;;;;;;;22.38;13.75;;;2.10;95.00;;;;;;5037493;28;20083;-72
2020/12/08 04:33:43;;;;;;;21.45;12.90;;;2.10;95.00;;;;;;5037395;28;20025;-71
2020/12/08 04:36:16;;;;;;;18.63;13.45;;;2.10;95.00;;;;;;5035259;28;20080;-72
2020/12/08 04:38:42;;;;;;;17.67;12.57;;;2.10;95.00;;;;;;5017090;28;20451;-72
2020/12/08 04:41:13;;;;;;;17.67;12.80;;;2.10;95.00;;;;;;5035091;28;20049;-72
2020/12/08 04:43:39;;;;;;;17.90;12.77;;;2.10;95.00;;;;;;5017361;28;20021;-73
2020/12/08 04:46:05;;;;;;;18.38;13.23;;;2.10;95.00;;;;;;5034322;28;20028;-71
2020/12/08 04:48:31;;;;;;;16.85;12.75;;;2.00;95.00;;;;;;5035132;28;20479;-76
2020/12/08 04:50:57;;;;;;;16.50;12.63;;;2.00;95.00;;;;;;5033684;28;20026;-71
2020/12/08 04:53:22;;;;;;;16.25;12.57;;;2.00;95.00;;;;;;5034428;28;20037;-71
2020/12/08 04:55:49;;;;;;;19.65;11.98;;;2.00;95.00;;;;;;5035242;28;20017;-71
2020/12/08 04:58:16;;;;;;;19.00;13.52;;;2.00;95.00;;;;;;5016903;28;20025;-72
2020/12/08 05:00:42;;;;;;;19.70;13.32;;;2.00;95.00;;;;;;5034263;28;20028;-71
2020/12/08 05:03:08;;;;;;;23.27;13.00;;;2.00;95.10;;;;;;5034520;28;20017;-75
2020/12/08 05:05:41;;;;;;;20.85;12.80;;;2.00;95.20;;;;;;5035062;28;20164;-72
2020/12/08 05:08:14;;;;;;;20.38;12.80;;;2.10;95.30;;;;;;5016226;28;20075;-72
2020/12/08 05:10:41;;;;;;;17.40;13.65;;;2.20;95.30;;;;;;5017120;28;20485;-73
2020/12/08 05:13:21;;;;;;;17.67;12.98;;;2.30;95.40;;;;;;5033785;28;20025;-82
2020/12/08 05:16:03;;;;;;;19.13;14.85;;;2.40;95.30;;;;;;5035156;28;20471;-79
2020/12/08 05:18:31;;;;;;;21.08;14.80;;;2.50;95.40;;;;;;5017173;28;20036;-73
2020/12/08 05:21:09;;;;;;;19.83;14.45;;;2.60;95.30;;;;;;5033713;28;20493;-73
2020/12/08 05:23:42;;;;;;;19.98;14.77;;;2.60;95.20;;;;;;5034352;28;20021;-73
2020/12/08 05:26:08;;;;;;;20.08;14.23;;;2.60;95.10;;;;;;5016441;28;20056;-71
2020/12/08 05:28:35;;;;;;;20.92;14.75;;;2.60;95.00;;;;;;5033681;28;20426;-74
2020/12/08 05:31:00;;;;;;;20.50;14.65;;;2.50;94.90;;;;;;5034196;28;20021;-71
2020/12/08 05:33:26;;;;;;;19.70;14.60;;;2.40;95.00;;;;;;5034322;28;20026;-77
2020/12/08 05:35:55;;;;;;;20.42;14.57;;;2.40;95.10;;;;;;5033259;28;20045;-72
2020/12/08 05:38:24;;;;;;;20.73;15.55;;;2.40;95.10;;;;;;5034360;28;20032;-72
2020/12/08 05:40:51;;;;;;;17.20;13.52;;;2.40;95.20;;;;;;5034184;28;20032;-71
2020/12/08 05:43:19;;;;;;;21.73;14.98;;;2.40;95.20;;;;;;5033471;28;20033;-72
2020/12/08 05:45:48;;;;;;;22.42;15.65;;;2.40;95.30;;;;;;5016550;28;20053;-77
2020/12/08 05:48:21;;;;;;;20.63;15.00;;;2.50;95.30;;;;;;5033114;28;20048;-79
2020/12/08 05:50:47;;;;;;;21.40;15.93;;;2.50;95.30;;;;;;5016475;28;20105;-77
2020/12/08 05:53:16;;;;;;;19.17;15.43;;;2.50;95.30;;;;;;5033680;28;20053;-77
2020/12/08 05:55:42;;;;;;;23.10;16.08;;;2.60;95.30;;;;;;5033326;28;20014;-78
2020/12/08 05:58:12;;;;;;;21.08;16.45;;;2.60;95.20;;;;;;5016031;28;20071;-73
2020/12/08 06:00:39;;;;;;;20.60;15.68;;;2.50;95.20;;;;;;5016321;28;20433;-71
2020/12/08 06:03:12;;;;;;;20.95;16.02;;;2.60;95.20;;;;;;5032776;28;20121;-74
2020/12/08 06:05:38;;;;;;;22.90;15.98;;;2.60;95.20;;;;;;5033609;28;20049;-78
2020/12/08 06:08:21;;;;;;;23.50;16.27;;;2.60;95.20;;;;;;5033483;28;20018;-75
2020/12/08 06:10:49;;;;;;;25.33;15.85;;;2.60;95.20;;;;;;5015370;28;20029;-79
2020/12/08 06:13:31;;;;;;;19.90;16.73;;;2.70;95.20;;;;;;5015792;28;20021;-72
2020/12/08 06:16:01;;;;;;;19.52;15.27;;;2.80;95.50;;;;;;5033440;28;20069;-75
2020/12/08 06:18:37;;;;;;;21.08;16.73;;;2.80;95.50;;;;;;5015373;28;20390;-73
2020/12/08 06:21:05;;;;;;;20.50;16.45;;;2.90;95.50;;;;;;5033247;28;20378;-76
2020/12/08 06:23:31;;;;;;;21.75;17.17;;;3.00;95.20;;;;;;5032944;28;20021;-75
2020/12/08 06:26:01;;;;;;;21.83;17.25;;;3.10;95.20;;;;;;5015269;28;20155;-75
2020/12/08 06:28:27;;;;;;;24.33;17.17;;;3.20;95.20;;;;;;5033391;28;20018;-76
2020/12/08 06:31:06;;;;;;;18.60;16.08;;;3.20;95.10;;;;;;5016553;28;20529;-72
2020/12/08 06:33:46;;;;;;;20.20;15.40;;;3.30;95.10;;;;;;5018116;28;20026;-78
2020/12/08 06:36:11;;;;;;;20.42;16.23;;;3.30;95.10;;;;;;5033163;28;20477;-82
2020/12/08 06:38:37;;;;;;;22.90;17.08;;;3.30;95.10;;;;;;5032572;28;20018;-73
2020/12/08 06:41:02;;;;;;;21.63;16.70;;;3.40;95.10;;;;;;5032976;28;20029;-72
2020/12/08 06:43:28;;;;;;;22.63;16.77;;;3.40;95.10;;;;;;5033052;28;20018;-73
2020/12/08 06:45:58;;;;;;;22.15;17.23;;;3.40;95.10;;;;;;5032262;28;20038;-75
2020/12/08 06:48:24;;;;;;;22.48;16.95;;;3.40;95.00;;;;;;5033345;28;20040;-76
2020/12/08 06:50:49;;;;;;;18.77;15.98;;;3.50;95.00;;;;;;5032659;28;20474;-73
2020/12/08 06:53:15;;;;;;;20.75;17.08;;;3.50;95.00;;;;;;5030131;28;20028;-74
2020/12/08 06:55:48;;;;;;;22.95;17.20;;;3.60;95.00;;;;;;5044537;28;20021;-73
2020/12/08 06:58:20;;;;;;;23.35;17.98;;;3.60;95.00;;;;;;5036328;28;20025;-76
2020/12/08 07:00:45;;;;;;;15.43;12.98;;;3.70;95.00;;;;;;5035498;28;20025;-76
2020/12/08 07:03:15;;;;;;;20.98;15.63;;;3.70;94.90;;;;;;5052498;28;20485;-77
2020/12/08 07:05:42;;;;;;;19.98;16.40;;;3.80;94.90;;;;;;5038646;28;20040;-72
2020/12/08 07:08:09;;;;;;;24.52;18.15;;;3.80;94.80;;;;;;5014355;28;20447;-74
2020/12/08 07:10:42;;;;;;;25.90;17.70;;;3.90;94.80;;;;;;5021200;28;20498;-73
2020/12/08 07:13:15;;;;;;;21.17;16.25;;;3.90;94.80;;;;;;5012432;28;20097;-72
2020/12/08 07:15:42;;;;;;;22.85;18.10;;;4.00;94.80;;;;;;5016614;28;20033;-72
2020/12/08 07:18:10;;;;;;;22.00;17.65;;;4.00;94.70;;;;;;5016807;28;20374;-73
2020/12/08 07:20:37;;;;;;;21.42;17.27;;;4.00;94.70;;;;;;4998903;28;20026;-75
2020/12/08 07:23:05;;;;;;;26.35;18.70;;;4.10;94.70;;;;;;5016917;28;20446;-80
2020/12/08 07:25:31;;;;;;;26.42;18.25;;;4.10;94.60;;;;;;5016934;28;20438;-77
2020/12/08 07:27:57;;;;;;;22.20;17.98;;;4.10;94.60;;;;;;5004566;28;20124;-73
2020/12/08 07:30:26;;;;;;;22.20;17.45;;;4.10;94.60;;;;;;5030582;28;20518;-71
2020/12/08 07:32:53;;;;;;;23.10;18.38;;;4.10;94.60;;;;;;5010702;28;20397;-71
2020/12/08 07:35:30;;;;;;;27.17;18.52;;;4.20;94.60;;;;;;5035342;28;20033;-73
2020/12/08 07:37:59;;;;;;;25.13;18.85;;;4.20;94.60;;;;;;5016583;28;20037;-74
2020/12/08 07:40:32;;;;;;;22.80;19.20;;;4.20;94.50;;;;;;5022325;28;20029;-74
2020/12/08 07:42:59;;;;;;;25.75;18.40;;;4.30;94.50;;;;;;5017335;28;20021;-73
2020/12/08 07:45:24;;;;;;;22.63;17.17;;;4.30;94.50;;;;;;5034789;28;20029;-74
2020/12/08 07:47:55;;;;;;;27.02;20.55;;;4.40;94.40;;;;;;5015674;28;20029;-73
2020/12/08 07:50:25;;;;;;;26.83;20.00;;;4.40;94.30;;;;;;5016074;28;20121;-74
2020/12/08 07:52:59;;;;;;;23.08;19.02;;;4.50;94.30;;;;;;5024371;28;20079;-75
2020/12/08 07:55:27;;;;;;;23.70;19.20;;;4.50;94.20;;;;;;5035611;28;20030;-75
2020/12/08 07:57:53;;;;;;;23.70;18.50;;;4.60;94.20;;;;;;5035415;28;20044;-72
2020/12/08 08:00:18;;;;;;;25.67;19.05;;;4.60;94.10;;;;;;5035517;28;20021;-73
2020/12/08 08:02:44;;;;;;;24.73;18.98;;;4.70;94.00;;;;;;5017776;28;20029;-72
2020/12/08 08:05:10;;;;;;;23.40;19.13;;;4.70;94.00;;;;;;5017636;28;20072;-77
2020/12/08 08:07:36;;;;;;;24.95;18.42;;;4.70;93.90;;;;;;5018362;28;20116;-76
2020/12/08 08:10:02;;;;;;;27.95;19.27;;;4.80;93.90;;;;;;5016694;28;20037;-76
2020/12/08 08:12:27;;;;;;;23.15;18.95;;;4.80;94.10;;;;;;5035646;28;20025;-80
2020/12/08 08:14:53;;;;;;;25.08;20.08;;;4.90;93.80;;;;;;5035606;28;20029;-74
2020/12/08 08:17:18;;;;;;;23.58;19.38;;;4.90;93.80;;;;;;5036192;28;20018;-76
2020/12/08 08:19:44;;;;;;;24.05;20.20;;;4.90;93.70;;;;;;5030749;28;20373;-77
2020/12/08 08:22:09;;;;;;;22.60;18.88;;;5.00;93.70;;;;;;5010715;28;20100;-73
2020/12/08 08:24:35;;;;;;;22.42;19.45;;;5.00;93.60;;;;;;5036995;28;20446;-76
2020/12/08 08:27:00;;;;;;;24.73;19.58;;;5.00;93.60;;;;;;5035625;28;20558;-74
2020/12/08 08:29:26;;;;;;;26.67;20.77;;;5.10;93.50;;;;;;5016966;28;20025;-74
2020/12/08 08:31:51;;;;;;;24.27;18.77;;;5.10;93.50;;;;;;5034628;28;20101;-74
2020/12/08 08:34:17;;;;;;;26.73;18.77;;;5.10;93.50;;;;;;5018686;28;20025;-73
2020/12/08 08:36:55;;;;;;;22.25;18.33;;;5.20;93.40;;;;;;5034911;28;20041;-73
2020/12/08 08:39:22;;;;;;;26.20;19.40;;;5.20;93.40;;;;;;5034745;28;20018;-75
2020/12/08 08:41:48;;;;;;;23.42;20.42;;;5.20;93.30;;;;;;5032568;28;20445;-76
2020/12/08 08:44:13;;;;;;;24.10;20.23;;;5.20;93.30;;;;;;5014478;28;20840;-73
2020/12/08 08:46:40;;;;;;;24.13;20.95;;;5.20;93.30;;;;;;5026228;28;20018;-77
2020/12/08 08:49:07;;;;;;;25.48;20.77;;;5.30;93.30;;;;;;5014093;28;20062;-74
2020/12/08 08:51:34;;;;;;;24.45;20.65;;;5.30;93.50;;;;;;5014750;28;20086;-74
2020/12/08 08:53:59;;;;;;;27.25;20.30;;;5.30;93.20;;;;;;5013536;28;20022;-74
2020/12/08 08:56:25;;;;;;;24.83;20.33;;;5.40;93.20;;;;;;5013919;28;20080;-74
2020/12/08 08:58:50;;;;;;;23.98;20.45;;;5.40;93.20;;;;;;5022877;28;20017;-75
2020/12/08 09:01:16;;;;;;;26.23;21.10;;;5.40;93.20;;;;;;5016576;28;20018;-76
2020/12/08 09:03:42;;;;;;;24.05;20.30;;;5.40;93.20;;;;;;5016879;28;20022;-76
2020/12/08 09:06:07;;;;;;;26.83;20.10;;;5.50;93.20;;;;;;5015951;28;20033;-77
2020/12/08 09:08:33;;;;;;;24.73;20.50;;;5.50;93.20;;;;;;5016905;28;20025;-74
2020/12/08 09:10:58;;;;;;;25.20;20.70;;;5.50;93.10;;;;;;5034621;28;20117;-74
2020/12/08 09:13:24;;;;;;;24.17;20.05;;;5.50;93.10;;;;;;5033877;28;20026;-74
2020/12/08 09:15:49;;;;;;;26.33;21.20;;;5.60;93.10;;;;;;5016829;28;20032;-73
2020/12/08 09:18:15;;;;;;;25.70;21.42;;;5.60;93.00;;;;;;5016342;28;20030;-73
2020/12/08 09:20:40;;;;;;;25.52;19.65;;;5.60;92.90;;;;;;4999569;28;20022;-76
2020/12/08 09:23:06;;;;;;;24.10;20.90;;;5.60;92.90;;;;;;5027097;28;20529;-76
2020/12/08 09:25:32;;;;;;;24.40;19.23;;;5.60;92.90;;;;;;5033643;28;20053;-75
2020/12/08 09:27:57;;;;;;;22.88;19.20;;;5.70;93.00;;;;;;5015513;28;20489;-75
2020/12/08 09:30:24;;;;;;;22.60;19.88;;;5.70;93.00;;;;;;5015780;28;20026;-78
2020/12/08 09:32:49;;;;;;;21.48;18.83;;;5.80;92.90;;;;;;5033978;28;20057;-78
2020/12/08 09:35:15;;;;;;;23.27;19.55;;;5.80;92.90;;;;;;5015151;28;20083;-72
2020/12/08 09:37:42;;;;;;;23.42;19.38;;;5.80;92.90;;;;;;5033541;28;20045;-74
2020/12/08 09:40:08;;;;;;;24.65;21.05;;;5.90;92.80;;;;;;5033523;28;20043;-75
2020/12/08 09:42:38;;;;;;;28.38;21.35;;;5.90;93.00;;;;;;5033344;28;20101;-76
2020/12/08 09:45:04;;;;;;;27.67;22.25;;;5.90;92.70;;;;;;5033347;28;20037;-73
2020/12/08 09:47:30;;;;;;;25.90;19.88;;;6.10;92.80;;;;;;5033204;28;20022;-76
2020/12/08 09:49:55;;;;;;;146.00;25.98;;;6.10;92.80;;;;;;5015901;28;20033;-79
2020/12/08 09:52:21;;;;;;;26.05;21.38;;;6.10;92.70;;;;;;5016159;28;20025;-74
2020/12/08 09:54:46;;;;;;;29.20;22.63;;;6.20;92.60;;;;;;5032776;28;20048;-71
2020/12/08 09:57:12;;;;;;;24.50;21.85;;;6.20;92.50;;;;;;5033370;28;20013;-73
2020/12/08 09:59:37;;;;;;;23.95;20.60;;;6.20;92.40;;;;;;5033336;28;20048;-74
2020/12/08 10:02:03;;;;;;;32.30;20.00;;;6.20;92.40;;;;;;5032563;28;20029;-72
2020/12/08 10:04:32;;;;;;;25.25;19.98;;;6.20;92.40;;;;;;5033483;28;20030;-71
2020/12/08 10:06:58;;;;;;;23.55;20.50;;;6.40;92.40;;;;;;5013390;28;20022;-82
2020/12/08 10:09:24;;;;;;;25.05;20.77;;;6.40;92.40;;;;;;5012743;28;20027;-83
2020/12/08 10:11:50;;;;;;;24.45;20.33;;;6.50;92.60;;;;;;4997909;28;20430;-82
2020/12/08 10:14:15;;;;;;;22.80;19.83;;;6.50;92.20;;;;;;5015982;28;20461;-83
2020/12/08 10:16:41;;;;;;;22.30;19.05;;;6.60;92.20;;;;;;5015004;28;20025;-80
2020/12/08 10:19:08;;;;;;;39.38;20.15;;;6.70;92.10;;;;;;5015125;28;20421;-84
2020/12/08 10:21:34;;;;;;;24.23;18.98;;;6.70;91.90;;;;;;5015501;28;20026;-73
2020/12/08 10:24:00;;;;;;;22.50;19.90;;;6.70;91.80;;;;;;5031986;28;20056;-84
2020/12/08 10:26:26;;;;;;;25.75;20.63;;;6.70;91.90;;;;;;5012456;28;20077;-80
2020/12/08 10:28:51;;;;;;;26.77;19.70;;;6.70;92.00;;;;;;5012118;28;20060;-79
2020/12/08 10:31:18;;;;;;;23.80;20.50;;;6.80;91.90;;;;;;5011490;28;20076;-81
2020/12/08 10:33:45;;;;;;;23.50;20.45;;;6.80;91.80;;;;;;5012638;28;20054;-81
2020/12/08 10:36:11;;;;;;;28.05;20.80;;;6.90;91.80;;;;;;5013182;28;20026;-78
2020/12/08 10:38:37;;;;;;;24.45;20.83;;;6.90;91.80;;;;;;5011500;28;20013;-82
2020/12/08 10:41:04;;;;;;;23.58;20.25;;;6.90;91.80;;;;;;4995728;28;20099;-80
2020/12/08 10:43:31;;;;;;;21.67;19.35;;;6.90;91.80;;;;;;5011928;28;20506;-78
2020/12/08 10:45:58;;;;;;;24.50;20.75;;;7.00;91.70;;;;;;5013200;28;20411;-80
2020/12/08 10:48:23;;;;;;;26.67;20.35;;;7.10;91.60;;;;;;5011439;28;20022;-79
2020/12/08 10:50:50;;;;;;;27.35;19.80;;;7.20;91.40;;;;;;5011218;28;20026;-80
2020/12/08 10:53:16;;;;;;;23.77;20.55;;;7.20;91.20;;;;;;5011597;28;20030;-84
2020/12/08 10:55:42;;;;;;;24.92;20.60;;;7.20;91.20;;;;;;5012264;28;20140;-74
2020/12/08 10:58:07;;;;;;;24.83;19.23;;;7.20;91.20;;;;;;5010646;28;20532;-75
2020/12/08 11:00:33;;;;;;;22.33;19.00;;;7.30;91.10;;;;;;5012781;28;20538;-73
2020/12/08 11:03:03;;;;;;;21.75;19.17;;;7.30;90.90;;;;;;5012358;28;20030;-73
2020/12/08 11:05:29;;;;;;;22.42;18.40;;;7.40;91.00;;;;;;5012014;28;20121;-73
2020/12/08 11:07:54;;;;;;;22.08;19.50;;;7.40;91.00;;;;;;5011048;28;20101;-73
2020/12/08 11:10:20;;;;;;;21.95;18.80;;;7.40;91.00;;;;;;5011290;28;20048;-73
2020/12/08 11:12:45;;;;;;;23.77;19.60;;;7.50;91.10;;;;;;5011511;28;20046;-73
2020/12/08 11:15:11;;;;;;;21.45;19.23;;;7.60;91.20;;;;;;5012530;28;20461;-73
2020/12/08 11:17:37;;;;;;;20.85;18.58;;;7.60;91.20;;;;;;5011373;28;20022;-71
2020/12/08 11:20:04;;;;;;;21.25;18.45;;;7.70;91.40;;;;;;5011906;28;20489;-74
2020/12/08 11:22:31;;;;;;;21.92;18.23;;;7.70;90.90;;;;;;5012592;28;20022;-76
2020/12/08 11:24:58;;;;;;;22.13;18.17;;;7.60;90.60;;;;;;5012251;28;20060;-78
2020/12/08 11:27:24;;;;;;;22.50;18.27;;;7.60;90.40;;;;;;5029085;28;20275;-75
2020/12/08 11:29:49;;;;;;;37.10;18.73;;;7.50;90.60;;;;;;5013358;28;20049;-81
2020/12/08 11:32:15;;;;;;;22.25;18.42;;;7.40;90.60;;;;;;5013379;28;20438;-74
2020/12/08 11:34:41;;;;;;;23.55;18.48;;;7.40;90.60;;;;;;5012867;28;20075;-74
2020/12/08 11:37:07;;;;;;;20.10;17.48;;;7.30;90.80;;;;;;5014138;28;20025;-74
2020/12/08 11:39:33;;;;;;;20.05;17.60;;;7.30;90.80;;;;;;5031771;28;20029;-76
2020/12/08 11:41:58;;;;;;;22.58;19.20;;;7.20;90.80;;;;;;5011751;28;20029;-73
2020/12/08 11:44:24;;;;;;;20.60;17.83;;;7.20;90.80;;;;;;5031279;28;20034;-74
2020/12/08 11:46:53;;;;;;;20.35;17.85;;;7.10;90.90;;;;;;5013414;28;20026;-75
2020/12/08 11:49:19;;;;;;;20.30;17.75;;;7.10;91.00;;;;;;5014003;28;20486;-72
2020/12/08 11:51:45;;;;;;;21.95;17.98;;;7.00;91.00;;;;;;5014132;28;20148;-73
2020/12/08 11:54:11;;;;;;;19.80;17.70;;;7.00;91.00;;;;;;5010102;28;20033;-78
2020/12/08 11:56:37;;;;;;;22.77;18.02;;;6.90;90.80;;;;;;5011079;28;20013;-80
2020/12/08 11:59:03;;;;;;;21.42;17.60;;;6.80;90.80;;;;;;5014138;28;20033;-80
2020/12/08 12:01:28;;;;;;;22.67;17.80;;;6.80;91.00;;;;;;5016532;28;20053;-79
2020/12/08 12:03:54;;;;;;;25.48;18.27;;;6.80;91.10;;;;;;5017258;28;20579;-79
2020/12/08 12:06:20;;;;;;;22.48;18.17;;;6.80;91.30;;;;;;5018141;28;20072;-75
2020/12/08 12:08:45;;;;;;;19.55;17.45;;;6.80;91.40;;;;;;5017015;28;20021;-76
2020/12/08 12:11:11;;;;;;;21.95;18.30;;;6.80;91.40;;;;;;5035507;28;20079;-81
2020/12/08 12:13:36;;;;;;;21.30;17.48;;;6.80;91.40;;;;;;5017826;28;20027;-74
2020/12/08 12:16:02;;;;;;;23.33;18.95;;;6.80;91.60;;;;;;5034588;28;20092;-76
2020/12/08 12:18:29;;;;;;;21.00;17.77;;;6.70;91.60;;;;;;5021723;28;20406;-78
2020/12/08 12:20:54;;;;;;;23.02;18.23;;;6.80;91.70;;;;;;4997685;28;20030;-72
2020/12/08 12:23:21;;;;;;;21.92;18.50;;;6.70;91.80;;;;;;5021537;28;20431;-71
2020/12/08 12:25:46;;;;;;;21.45;18.55;;;6.80;91.90;;;;;;5035107;28;20057;-81
2020/12/08 12:28:12;;;;;;;24.02;19.15;;;6.80;91.90;;;;;;5017198;28;20022;-74
2020/12/08 12:30:37;;;;;;;24.73;19.33;;;6.80;92.00;;;;;;5034633;28;20030;-82
2020/12/08 12:33:04;;;;;;;20.50;18.30;;;6.90;92.10;;;;;;5017169;28;20071;-88
2020/12/08 12:35:30;;;;;;;21.38;18.90;;;6.90;92.10;;;;;;5017750;28;20033;-76